createdAt,value
2023-04-23T00:00:07.184Z,9.20
2023-04-23T00:02:57.914Z,9.20
2023-04-23T00:05:46.187Z,9.20
2023-04-23T00:08:34.467Z,9.20
2023-04-23T00:11:22.399Z,9.20
2023-04-23T00:14:11.554Z,9.10
2023-04-23T00:16:59.043Z,9.10
2023-04-23T00:19:47.551Z,9.00
2023-04-23T00:22:35.107Z,9.00
2023-04-23T00:25:22.595Z,9.00
2023-04-23T00:28:10.113Z,9.00
2023-04-23T00:30:57.771Z,8.90
2023-04-23T00:33:45.293Z,8.90
2023-04-23T00:36:32.780Z,8.90
2023-04-23T00:39:20.319Z,8.80
2023-04-23T00:42:12.589Z,8.80
2023-04-23T00:45:02.201Z,8.70
2023-04-23T00:47:50.394Z,8.70
2023-04-23T00:50:38.133Z,8.70
2023-04-23T00:53:26.641Z,8.70
2023-04-23T00:56:14.964Z,8.70
2023-04-23T00:59:03.742Z,8.70
2023-04-23T01:01:52.137Z,8.70
2023-04-23T01:04:43.911Z,8.70
2023-04-23T01:07:35.987Z,8.70
2023-04-23T01:10:23.791Z,8.70
2023-04-23T01:13:13.832Z,8.70
2023-04-23T01:16:02.346Z,8.70
2023-04-23T01:18:49.874Z,8.70
2023-04-23T01:21:41.717Z,8.80
2023-04-23T01:24:32.915Z,8.80
2023-04-23T01:27:21.097Z,8.80
2023-04-23T01:30:09.586Z,8.80
2023-04-23T01:32:57.820Z,8.80
2023-04-23T01:35:47.704Z,8.80
2023-04-23T01:38:38.584Z,8.80
2023-04-23T01:41:26.070Z,8.70
2023-04-23T01:44:13.552Z,8.70
2023-04-23T01:47:01.135Z,8.80
2023-04-23T01:49:48.921Z,8.80
2023-04-23T01:52:36.636Z,8.80
2023-04-23T01:55:24.113Z,8.80
2023-04-23T01:58:11.587Z,8.80
2023-04-23T02:00:59.044Z,8.80
2023-04-23T02:03:49.420Z,8.90
2023-04-23T02:06:36.921Z,8.90
2023-04-23T02:09:24.411Z,8.90
2023-04-23T02:12:11.917Z,8.90
2023-04-23T02:14:59.502Z,8.90
2023-04-23T02:17:47.212Z,8.80
2023-04-23T02:20:38.808Z,8.80
2023-04-23T02:23:26.256Z,8.80
2023-04-23T02:26:13.761Z,8.80
2023-04-23T02:29:01.165Z,8.80
2023-04-23T02:31:48.625Z,8.80
2023-04-23T02:34:36.167Z,8.80
2023-04-23T02:37:24.161Z,8.80
2023-04-23T02:40:12.329Z,8.80
2023-04-23T02:42:59.800Z,8.80
2023-04-23T02:45:47.270Z,8.80
2023-04-23T02:48:42.164Z,8.80
2023-04-23T02:51:29.825Z,8.80
2023-04-23T02:54:18.322Z,8.80
2023-04-23T02:57:06.577Z,8.70
2023-04-23T02:59:54.281Z,8.70
2023-04-23T03:02:42.018Z,8.80
2023-04-23T03:05:30.291Z,8.80
2023-04-23T03:08:17.755Z,8.80
2023-04-23T03:11:05.251Z,8.90
2023-04-23T03:13:52.693Z,8.90
2023-04-23T03:16:40.220Z,9.00
2023-04-23T03:19:27.782Z,9.00
2023-04-23T03:22:15.408Z,9.10
2023-04-23T03:25:03.974Z,9.10
2023-04-23T03:27:52.093Z,9.10
2023-04-23T03:30:39.846Z,9.10
2023-04-23T03:33:27.794Z,9.20
2023-04-23T03:36:15.821Z,9.20
2023-04-23T03:39:03.283Z,9.20
2023-04-23T03:41:50.782Z,9.20
2023-04-23T03:44:38.388Z,9.20
2023-04-23T03:47:25.985Z,9.20
2023-04-23T03:50:13.596Z,9.20
2023-04-23T03:53:01.655Z,9.20
2023-04-23T03:55:49.104Z,9.20
2023-04-23T03:58:36.806Z,9.20
2023-04-23T04:01:24.388Z,9.20
2023-04-23T04:04:12.082Z,9.20
2023-04-23T04:07:01.155Z,9.20
2023-04-23T04:09:49.428Z,9.20
2023-04-23T04:12:37.057Z,9.30
2023-04-23T04:15:24.733Z,9.30
2023-04-23T04:18:12.205Z,9.30
2023-04-23T04:20:59.753Z,9.30
2023-04-23T04:23:47.318Z,9.30
2023-04-23T04:26:34.998Z,9.30
2023-04-23T04:29:24.051Z,9.30
2023-04-23T04:32:11.565Z,9.40
2023-04-23T04:34:59.092Z,9.50
2023-04-23T04:37:46.527Z,9.60
2023-04-23T04:40:34.960Z,9.60
2023-04-23T04:43:22.659Z,9.60
2023-04-23T04:46:11.871Z,9.70
2023-04-23T04:48:59.395Z,9.80
2023-04-23T04:51:46.923Z,9.90
2023-04-23T04:54:34.360Z,9.90
2023-04-23T04:57:23.280Z,10.00
2023-04-23T05:00:24.410Z,10.10
2023-04-23T05:03:14.327Z,10.20
2023-04-23T05:06:02.273Z,10.20
2023-04-23T05:08:49.876Z,10.30
2023-04-23T05:11:37.802Z,10.40
2023-04-23T05:14:26.771Z,10.50
2023-04-23T05:17:14.257Z,10.60
2023-04-23T05:20:01.942Z,10.70
2023-04-23T05:22:49.490Z,10.80
2023-04-23T05:25:36.994Z,10.80
2023-04-23T05:28:25.433Z,11.00
2023-04-23T05:31:13.089Z,11.10
2023-04-23T05:34:01.261Z,11.40
2023-04-23T05:36:48.744Z,11.50
2023-04-23T05:39:36.193Z,11.70
2023-04-23T05:42:24.199Z,11.80
2023-04-23T05:45:12.012Z,12.00
2023-04-23T05:48:00.226Z,12.00
2023-04-23T05:50:49.665Z,12.20
2023-04-23T05:53:37.219Z,12.30
2023-04-23T05:56:24.754Z,12.40
2023-04-23T05:59:12.316Z,12.40
2023-04-23T06:02:00.144Z,12.50
2023-04-23T06:04:48.158Z,12.50
2023-04-23T06:07:36.670Z,12.50
2023-04-23T06:10:24.130Z,12.60
2023-04-23T06:13:11.671Z,12.70
2023-04-23T06:15:59.831Z,12.80
2023-04-23T06:18:47.253Z,12.90
2023-04-23T06:21:34.812Z,13.00
2023-04-23T06:24:22.265Z,13.20
2023-04-23T06:27:09.725Z,13.20
2023-04-23T06:29:57.106Z,13.50
2023-04-23T06:32:44.643Z,13.70
2023-04-23T06:35:32.078Z,14.00
2023-04-23T06:38:21.374Z,14.20
2023-04-23T06:41:08.962Z,14.40
2023-04-23T06:43:56.595Z,14.70
2023-04-23T06:46:44.113Z,14.90
2023-04-23T06:49:31.827Z,15.00
2023-04-23T06:52:19.228Z,15.20
2023-04-23T06:55:08.092Z,15.40
2023-04-23T06:57:56.679Z,15.50
2023-04-23T07:00:44.439Z,15.50
2023-04-23T07:03:32.064Z,15.60
2023-04-23T07:06:19.564Z,15.60
2023-04-23T07:09:07.336Z,15.60
2023-04-23T07:11:55.124Z,15.50
2023-04-23T07:14:43.778Z,15.60
2023-04-23T07:17:31.541Z,15.70
2023-04-23T07:20:19.172Z,15.70
2023-04-23T07:23:06.822Z,15.70
2023-04-23T07:25:54.255Z,15.70
2023-04-23T07:28:41.687Z,16.00
2023-04-23T07:31:29.375Z,16.10
2023-04-23T07:34:16.920Z,16.40
2023-04-23T07:37:04.718Z,16.60
2023-04-23T07:39:53.780Z,16.80
2023-04-23T07:42:41.452Z,16.90
2023-04-23T07:45:28.932Z,17.10
2023-04-23T07:48:16.522Z,17.30
2023-04-23T07:51:04.145Z,17.50
2023-04-23T07:53:54.219Z,17.70
2023-04-23T07:56:43.345Z,18.00
2023-04-23T07:59:31.398Z,18.10
2023-04-23T08:02:23.794Z,17.90
2023-04-23T08:05:11.614Z,18.00
2023-04-23T08:07:59.217Z,18.20
2023-04-23T08:10:46.926Z,18.10
2023-04-23T08:13:34.582Z,18.10
2023-04-23T08:16:22.093Z,18.30
2023-04-23T08:19:09.566Z,18.50
2023-04-23T08:21:57.106Z,18.40
2023-04-23T08:24:46.422Z,18.60
2023-04-23T08:27:34.256Z,18.80
2023-04-23T08:30:21.867Z,19.00
2023-04-23T08:33:09.470Z,19.00
2023-04-23T08:35:56.985Z,18.90
2023-04-23T08:38:44.503Z,19.20
2023-04-23T08:41:42.825Z,19.40
2023-04-23T08:44:32.640Z,19.50
2023-04-23T08:47:24.791Z,19.70
2023-04-23T08:50:18.214Z,19.60
2023-04-23T08:53:07.496Z,19.80
2023-04-23T08:55:57.435Z,19.80
2023-04-23T08:58:47.575Z,20.10
2023-04-23T09:01:36.119Z,20.20
2023-04-23T09:04:25.656Z,20.40
2023-04-23T09:07:13.674Z,20.60
2023-04-23T09:10:07.093Z,20.80
2023-04-23T09:12:54.805Z,20.90
2023-04-23T09:15:45.404Z,21.00
2023-04-23T09:18:32.834Z,20.90
2023-04-23T09:21:21.496Z,20.70
2023-04-23T09:24:15.065Z,20.90
2023-04-23T09:27:03.883Z,21.00
2023-04-23T09:29:53.245Z,21.20
2023-04-23T09:32:44.232Z,21.30
2023-04-23T09:35:35.960Z,21.10
2023-04-23T09:38:23.523Z,21.20
2023-04-23T09:41:28.743Z,21.50
2023-04-23T09:44:24.656Z,21.40
2023-04-23T09:47:14.931Z,21.50
2023-04-23T09:50:03.061Z,21.40
2023-04-23T09:52:56.614Z,21.40
2023-04-23T09:55:46.252Z,21.50
2023-04-23T09:58:33.807Z,21.60
2023-04-23T10:01:30.005Z,21.50
2023-04-23T10:04:23.248Z,21.50
2023-04-23T10:07:19.730Z,21.70
2023-04-23T10:10:09.002Z,21.90
2023-04-23T10:12:57.370Z,22.30
2023-04-23T10:15:47.802Z,22.50
2023-04-23T10:18:38.094Z,22.60
2023-04-23T10:21:39.330Z,22.70
2023-04-23T10:24:33.976Z,22.50
2023-04-23T10:27:36.861Z,22.80
2023-04-23T10:30:33.159Z,22.90
2023-04-23T10:36:18.078Z,22.70
2023-04-23T10:39:09.415Z,22.80
2023-04-23T10:41:58.653Z,22.80
2023-04-23T10:44:57.983Z,22.60
2023-04-23T10:47:50.466Z,22.60
2023-04-23T10:50:50.927Z,22.80
2023-04-23T10:53:46.478Z,23.00
2023-04-23T10:56:34.069Z,23.40
2023-04-23T10:59:23.073Z,23.60
2023-04-23T11:02:13.431Z,23.10
2023-04-23T11:05:07.299Z,23.20
2023-04-23T11:08:18.727Z,23.10
2023-04-23T11:11:09.278Z,23.20
2023-04-23T11:13:57.318Z,22.90
2023-04-23T11:16:48.658Z,22.90
2023-04-23T11:19:38.606Z,22.70
2023-04-23T11:22:37.010Z,22.40
2023-04-23T11:25:27.981Z,22.50
2023-04-23T11:28:16.338Z,22.50
2023-04-23T11:31:03.805Z,22.60
2023-04-23T11:33:51.340Z,22.70
2023-04-23T11:36:40.334Z,22.70
2023-04-23T11:39:28.558Z,22.80
2023-04-23T11:42:17.511Z,22.80
2023-04-23T11:45:05.500Z,22.80
2023-04-23T11:47:56.414Z,22.70
2023-04-23T11:50:44.035Z,22.70
2023-04-23T11:53:31.701Z,23.10
2023-04-23T11:56:24.009Z,23.00
2023-04-23T11:59:11.893Z,23.00
2023-04-23T12:02:00.804Z,22.90
2023-04-23T12:04:48.474Z,22.90
2023-04-23T12:07:36.161Z,22.70
2023-04-23T12:10:24.521Z,22.70
2023-04-23T12:13:33.902Z,22.70
2023-04-23T12:16:36.292Z,22.70
2023-04-23T12:19:31.653Z,22.60
2023-04-23T12:22:28.426Z,22.60
2023-04-23T12:25:16.193Z,22.80
2023-04-23T12:28:07.877Z,23.00
2023-04-23T12:31:01.737Z,23.00
2023-04-23T12:33:59.026Z,23.10
2023-04-23T12:36:53.039Z,23.00
2023-04-23T12:39:40.959Z,23.10
2023-04-23T12:42:28.836Z,23.20
2023-04-23T12:45:16.421Z,23.00
2023-04-23T12:48:04.360Z,23.10
2023-04-23T12:50:52.043Z,23.10
2023-04-23T12:53:39.548Z,22.90
2023-04-23T12:56:27.198Z,23.10
2023-04-23T12:59:14.643Z,22.80
2023-04-23T13:02:03.855Z,22.90
2023-04-23T13:04:51.853Z,22.90
2023-04-23T13:07:39.474Z,22.90
2023-04-23T13:10:27.401Z,23.00
2023-04-23T13:13:14.881Z,23.20
2023-04-23T13:16:02.455Z,23.10
2023-04-23T13:18:51.742Z,23.00
2023-04-23T13:21:40.028Z,23.20
2023-04-23T13:24:27.491Z,23.50
2023-04-23T13:27:15.506Z,23.00
2023-04-23T13:30:03.452Z,22.80
2023-04-23T13:32:50.996Z,22.70
2023-04-23T13:35:38.666Z,22.60
2023-04-23T13:38:27.617Z,22.60
2023-04-23T13:41:15.092Z,22.60
2023-04-23T13:44:02.736Z,22.80
2023-04-23T13:46:50.989Z,22.80
2023-04-23T13:49:38.841Z,22.70
2023-04-23T13:52:26.274Z,22.40
2023-04-23T13:55:13.811Z,22.40
2023-04-23T13:58:01.300Z,22.30
2023-04-23T14:00:49.087Z,22.30
2023-04-23T14:03:36.609Z,22.40
2023-04-23T14:06:24.100Z,22.40
2023-04-23T14:09:12.212Z,22.60
2023-04-23T14:11:59.779Z,22.70
2023-04-23T14:14:47.226Z,22.40
2023-04-23T14:17:37.740Z,22.60
2023-04-23T14:20:25.464Z,22.50
2023-04-23T14:23:28.160Z,22.50
2023-04-23T14:26:48.077Z,22.50
2023-04-23T14:29:46.310Z,22.60
2023-04-23T14:32:34.253Z,22.50
2023-04-23T14:35:32.492Z,22.50
2023-04-23T14:38:30.313Z,22.50
2023-04-23T14:41:17.870Z,22.30
2023-04-23T14:44:05.419Z,22.50
2023-04-23T14:46:56.548Z,22.50
2023-04-23T14:49:45.825Z,22.60
2023-04-23T14:52:33.551Z,22.70
2023-04-23T14:55:22.774Z,22.80
2023-04-23T14:58:10.352Z,22.90
2023-04-23T15:00:57.852Z,23.10
2023-04-23T15:03:46.455Z,23.40
2023-04-23T15:06:34.423Z,23.40
2023-04-23T15:09:21.831Z,23.50
2023-04-23T15:12:31.917Z,23.40
2023-04-23T15:16:02.328Z,23.50
2023-04-23T15:18:51.191Z,23.70
2023-04-23T15:21:39.286Z,23.80
2023-04-23T15:24:29.333Z,23.70
2023-04-23T15:27:16.814Z,23.50
2023-04-23T15:30:05.398Z,23.50
2023-04-23T15:32:57.634Z,23.60
2023-04-23T15:35:45.249Z,23.80
2023-04-23T15:38:32.957Z,23.80
2023-04-23T15:41:20.384Z,23.70
2023-04-23T15:44:12.982Z,23.40
2023-04-23T15:47:01.472Z,23.20
2023-04-23T15:49:50.143Z,22.90
2023-04-23T15:52:38.319Z,22.90
2023-04-23T15:55:26.162Z,22.60
2023-04-23T15:58:13.755Z,22.40
2023-04-23T16:01:03.104Z,22.20
2023-04-23T16:03:57.987Z,22.20
2023-04-23T16:06:55.942Z,22.30
2023-04-23T16:09:43.716Z,22.40
2023-04-23T16:12:32.854Z,22.50
2023-04-23T16:15:20.379Z,22.70
2023-04-23T16:18:07.958Z,22.50
2023-04-23T16:20:55.673Z,22.20
2023-04-23T16:23:43.196Z,21.90
2023-04-23T16:26:30.755Z,21.70
2023-04-23T16:29:22.678Z,21.50
2023-04-23T16:32:10.625Z,21.30
2023-04-23T16:34:58.151Z,21.10
2023-04-23T16:37:45.791Z,21.00
2023-04-23T16:40:34.778Z,21.00
2023-04-23T16:43:22.249Z,20.80
2023-04-23T16:46:10.749Z,20.60
2023-04-23T16:48:58.286Z,20.30
2023-04-23T16:51:45.969Z,19.90
2023-04-23T16:54:36.008Z,19.60
2023-04-23T16:57:23.464Z,19.40
2023-04-23T17:00:12.798Z,19.10
2023-04-23T17:03:00.451Z,18.80
2023-04-23T17:06:07.860Z,18.70
2023-04-23T17:08:57.939Z,18.70
2023-04-23T17:11:45.396Z,18.60
2023-04-23T17:14:32.939Z,18.40
2023-04-23T17:17:20.521Z,18.20
2023-04-23T17:20:09.038Z,18.00
2023-04-23T17:22:56.522Z,17.90
2023-04-23T17:25:44.026Z,17.70
2023-04-23T17:28:31.706Z,17.60
2023-04-23T17:31:19.283Z,17.50
2023-04-23T17:34:06.799Z,17.50
2023-04-23T17:36:54.259Z,17.40
2023-04-23T17:39:41.790Z,17.30
2023-04-23T17:42:29.316Z,17.20
2023-04-23T17:45:18.822Z,17.10
2023-04-23T17:48:06.667Z,17.00
2023-04-23T17:50:54.804Z,16.90
2023-04-23T17:53:42.540Z,16.80
2023-04-23T17:56:30.089Z,16.70
2023-04-23T17:59:17.625Z,16.50
2023-04-23T18:02:05.315Z,16.40
2023-04-23T18:04:52.988Z,16.30
2023-04-23T18:07:42.968Z,16.20
2023-04-23T18:10:31.020Z,16.10
2023-04-23T18:13:18.703Z,16.10
2023-04-23T18:16:06.310Z,16.00
2023-04-23T18:18:53.828Z,15.90
2023-04-23T18:21:41.399Z,15.80
2023-04-23T18:24:28.942Z,15.80
2023-04-23T18:27:17.571Z,15.70
2023-04-23T18:30:08.348Z,15.60
2023-04-23T18:33:11.073Z,15.50
2023-04-23T18:36:05.851Z,15.50
2023-04-23T18:38:53.979Z,15.40
2023-04-23T18:41:41.473Z,15.30
2023-04-23T18:44:29.260Z,15.30
2023-04-23T18:47:19.713Z,15.30
2023-04-23T18:50:43.823Z,15.20
2023-04-23T18:53:37.283Z,15.20
2023-04-23T18:56:25.253Z,15.10
2023-04-23T18:59:14.151Z,15.00
2023-04-23T19:02:03.554Z,15.00
2023-04-23T19:04:51.407Z,15.00
2023-04-23T19:07:41.388Z,14.80
2023-04-23T19:10:29.353Z,14.80
2023-04-23T19:13:17.230Z,14.70
2023-04-23T19:16:04.819Z,14.60
2023-04-23T19:18:52.398Z,14.60
2023-04-23T19:21:40.026Z,14.50
2023-04-23T19:24:29.026Z,14.30
2023-04-23T19:27:16.489Z,14.20
2023-04-23T19:30:10.306Z,14.20
2023-04-23T19:32:57.984Z,14.10
2023-04-23T19:35:48.690Z,13.90
2023-04-23T19:38:36.125Z,13.80
2023-04-23T19:41:23.915Z,13.70
2023-04-23T19:44:11.362Z,13.70
2023-04-23T19:46:58.981Z,13.60
2023-04-23T19:49:47.050Z,13.50
2023-04-23T19:52:34.881Z,13.40
2023-04-23T19:55:27.112Z,13.30
2023-04-23T19:58:16.250Z,13.20
2023-04-23T20:01:03.768Z,13.10
2023-04-23T20:03:53.945Z,13.10
2023-04-23T20:06:41.958Z,12.90
2023-04-23T20:09:29.643Z,12.80
2023-04-23T20:12:17.467Z,12.70
2023-04-23T20:15:06.665Z,12.70
2023-04-23T20:17:54.894Z,12.60
2023-04-23T20:20:42.831Z,12.60
2023-04-23T20:23:30.311Z,12.60
2023-04-23T20:26:19.535Z,12.40
2023-04-23T20:29:08.161Z,12.30
2023-04-23T20:31:55.690Z,12.20
2023-04-23T20:34:43.183Z,12.00
2023-04-23T20:37:30.662Z,11.90
2023-04-23T20:40:19.266Z,11.90
2023-04-23T20:43:07.478Z,11.80
2023-04-23T20:45:55.810Z,11.70
2023-04-23T20:48:43.494Z,11.60
2023-04-23T20:51:35.539Z,11.60
2023-04-23T20:54:23.138Z,11.50
2023-04-23T20:57:11.262Z,11.40
2023-04-23T20:59:58.744Z,11.40
2023-04-23T21:02:46.793Z,11.40
2023-04-23T21:05:34.413Z,11.40
2023-04-23T21:08:21.881Z,11.40
2023-04-23T21:11:17.840Z,11.30
2023-04-23T21:14:08.887Z,11.20
2023-04-23T21:16:56.994Z,11.00
2023-04-23T21:19:44.609Z,10.90
2023-04-23T21:22:32.615Z,10.80
2023-04-23T21:25:20.186Z,10.70
2023-04-23T21:28:07.657Z,10.70
2023-04-23T21:30:57.673Z,10.70
2023-04-23T21:33:45.455Z,10.60
2023-04-23T21:36:33.046Z,10.60
2023-04-23T21:39:21.190Z,10.60
2023-04-23T21:42:08.684Z,10.50
2023-04-23T21:44:56.340Z,10.50
2023-04-23T21:47:44.058Z,10.50
2023-04-23T21:50:33.146Z,10.50
2023-04-23T21:53:22.582Z,10.60
2023-04-23T21:56:10.309Z,10.70
2023-04-23T21:58:57.899Z,10.80
2023-04-23T22:01:45.719Z,10.90
2023-04-23T22:04:34.240Z,10.90
2023-04-23T22:07:22.975Z,10.90
2023-04-23T22:10:13.419Z,10.90
2023-04-23T22:13:01.352Z,10.90
2023-04-23T22:15:49.326Z,10.90
2023-04-23T22:18:38.662Z,10.90
2023-04-23T22:21:26.151Z,10.80
2023-04-23T22:24:13.649Z,10.80
2023-04-23T22:27:02.041Z,10.80
2023-04-23T22:29:49.669Z,10.70
2023-04-23T22:32:39.178Z,10.70
2023-04-23T22:35:26.817Z,10.70
2023-04-23T22:38:14.436Z,10.70
2023-04-23T22:41:02.389Z,10.70
2023-04-23T22:43:50.221Z,10.70
2023-04-23T22:46:37.941Z,10.70
2023-04-23T22:49:25.717Z,10.60
2023-04-23T22:52:14.445Z,10.60
2023-04-23T22:55:02.346Z,10.50
2023-04-23T22:57:49.959Z,10.50
2023-04-23T23:00:37.449Z,10.40
2023-04-23T23:03:25.742Z,10.40
2023-04-23T23:06:13.502Z,10.40
2023-04-23T23:09:00.988Z,10.30
2023-04-23T23:11:48.683Z,10.20
2023-04-23T23:14:37.933Z,10.20
2023-04-23T23:17:25.744Z,10.20
2023-04-23T23:20:13.576Z,10.20
2023-04-23T23:23:01.295Z,10.30
2023-04-23T23:25:48.773Z,10.40
2023-04-23T23:28:36.378Z,10.60
2023-04-23T23:31:26.132Z,10.70
2023-04-23T23:34:13.837Z,10.90
2023-04-23T23:37:01.396Z,11.20
2023-04-23T23:39:48.899Z,11.40
2023-04-23T23:42:36.511Z,11.60
2023-04-23T23:45:24.209Z,11.90
2023-04-23T23:48:11.795Z,12.20
2023-04-23T23:50:59.483Z,12.40
2023-04-23T23:53:47.081Z,12.60
2023-04-23T23:56:34.556Z,12.70
2023-04-23T23:59:22.017Z,12.80
